createdAt,value
2022-10-26T00:00:52.513Z,12.10
2022-10-26T00:02:17.379Z,10.20
2022-10-26T00:03:40.770Z,15.63
2022-10-26T00:05:04.258Z,11.00
2022-10-26T00:06:28.949Z,12.48
2022-10-26T00:07:52.481Z,15.27
2022-10-26T00:09:15.807Z,12.30
2022-10-26T00:10:38.857Z,12.77
2022-10-26T00:12:02.399Z,14.60
2022-10-26T00:13:24.760Z,15.50
2022-10-26T00:14:48.125Z,12.65
2022-10-26T00:16:12.274Z,14.77
2022-10-26T00:17:37.141Z,16.17
2022-10-26T00:19:00.543Z,10.23
2022-10-26T00:20:24.018Z,10.00
2022-10-26T00:21:47.583Z,8.20
2022-10-26T00:23:10.933Z,18.20
2022-10-26T00:24:33.344Z,13.63
2022-10-26T00:25:56.896Z,9.23
2022-10-26T00:27:20.528Z,11.95
2022-10-26T00:28:43.940Z,9.43
2022-10-26T00:30:08.510Z,10.50
2022-10-26T00:31:31.875Z,11.35
2022-10-26T00:32:55.623Z,11.90
2022-10-26T00:34:18.988Z,11.95
2022-10-26T00:35:45.990Z,12.40
2022-10-26T00:37:09.673Z,18.00
2022-10-26T00:38:33.065Z,13.35
2022-10-26T00:39:56.442Z,17.98
2022-10-26T00:41:20.830Z,11.70
2022-10-26T00:42:44.254Z,9.07
2022-10-26T00:44:41.026Z,9.55
2022-10-26T00:46:06.342Z,11.30
2022-10-26T00:47:38.625Z,8.48
2022-10-26T00:49:05.572Z,8.52
2022-10-26T00:50:33.523Z,8.68
2022-10-26T00:51:55.872Z,10.02
2022-10-26T00:53:19.740Z,8.80
2022-10-26T00:54:42.146Z,10.75
2022-10-26T00:56:06.438Z,9.52
2022-10-26T00:57:29.165Z,9.73
2022-10-26T00:58:52.689Z,8.60
2022-10-26T01:00:15.577Z,9.40
2022-10-26T01:01:42.017Z,9.45
2022-10-26T01:03:06.959Z,14.57
2022-10-26T01:04:31.666Z,12.25
2022-10-26T01:05:58.070Z,9.10
2022-10-26T01:08:45.979Z,10.52
2022-10-26T01:10:09.310Z,10.25
2022-10-26T01:11:32.834Z,7.82
2022-10-26T01:12:56.107Z,8.90
2022-10-26T01:14:20.856Z,8.40
2022-10-26T01:15:52.359Z,8.90
2022-10-26T01:17:30.701Z,11.15
2022-10-26T01:19:04.679Z,7.45
2022-10-26T01:20:57.469Z,11.35
2022-10-26T01:22:23.182Z,12.82
2022-10-26T01:23:57.284Z,9.45
2022-10-26T01:25:35.194Z,13.35
2022-10-26T01:27:07.828Z,10.07
2022-10-26T01:28:40.972Z,7.47
2022-10-26T01:30:28.130Z,9.07
2022-10-26T01:31:57.069Z,9.30
2022-10-26T01:33:30.782Z,8.05
2022-10-26T01:34:57.749Z,8.52
2022-10-26T01:36:23.964Z,8.68
2022-10-26T01:37:49.796Z,9.25
2022-10-26T01:39:17.635Z,8.82
2022-10-26T01:40:43.211Z,13.05
2022-10-26T01:42:08.228Z,6.25
2022-10-26T01:43:35.388Z,8.13
2022-10-26T01:45:02.193Z,12.23
2022-10-26T01:46:29.218Z,14.23
2022-10-26T01:47:54.385Z,10.57
2022-10-26T01:49:21.347Z,6.07
2022-10-26T01:50:45.393Z,11.20
2022-10-26T01:52:10.622Z,10.02
2022-10-26T01:53:34.020Z,8.80
2022-10-26T01:55:02.705Z,13.38
2022-10-26T01:56:26.998Z,8.00
2022-10-26T01:57:52.783Z,8.48
2022-10-26T01:59:27.758Z,8.98
2022-10-26T02:00:58.394Z,8.80
2022-10-26T02:02:38.162Z,8.27
2022-10-26T02:04:08.071Z,7.30
2022-10-26T02:05:47.633Z,9.10
2022-10-26T02:07:16.520Z,13.70
2022-10-26T02:08:55.267Z,11.55
2022-10-26T02:10:28.401Z,7.78
2022-10-26T02:11:53.639Z,8.15
2022-10-26T02:13:19.180Z,10.07
2022-10-26T02:14:49.296Z,9.55
2022-10-26T02:16:20.729Z,8.55
2022-10-26T02:17:49.611Z,7.63
2022-10-26T02:19:20.597Z,8.02
2022-10-26T02:20:46.384Z,10.80
2022-10-26T02:22:15.600Z,9.68
2022-10-26T02:23:42.255Z,6.35
2022-10-26T02:25:09.334Z,9.88
2022-10-26T02:26:34.191Z,9.13
2022-10-26T02:28:00.088Z,10.57
2022-10-26T02:29:24.638Z,9.15
2022-10-26T02:30:47.748Z,10.73
2022-10-26T02:32:11.518Z,9.57
2022-10-26T02:33:39.662Z,11.23
2022-10-26T02:35:04.317Z,9.25
2022-10-26T02:36:28.490Z,13.40
2022-10-26T02:37:53.540Z,11.43
2022-10-26T02:39:18.463Z,14.60
2022-10-26T02:40:42.202Z,11.68
2022-10-26T02:42:07.852Z,12.30
2022-10-26T02:45:04.394Z,11.02
2022-10-26T02:46:29.467Z,17.02
2022-10-26T02:47:53.171Z,12.38
2022-10-26T02:49:17.906Z,13.38
2022-10-26T02:50:47.374Z,10.35
2022-10-26T02:52:13.604Z,8.93
2022-10-26T02:53:40.045Z,11.82
2022-10-26T02:55:07.023Z,9.90
2022-10-26T02:56:32.879Z,10.13
2022-10-26T02:57:59.226Z,13.10
2022-10-26T02:59:23.845Z,11.70
2022-10-26T03:00:47.104Z,8.38
2022-10-26T03:02:10.868Z,11.40
2022-10-26T03:03:33.277Z,8.85
2022-10-26T03:04:58.280Z,12.63
2022-10-26T03:06:23.873Z,10.23
2022-10-26T03:07:47.222Z,9.82
2022-10-26T03:09:10.641Z,7.75
2022-10-26T03:10:34.809Z,11.30
2022-10-26T03:11:58.825Z,9.50
2022-10-26T03:13:22.238Z,13.68
2022-10-26T03:14:45.574Z,9.90
2022-10-26T03:16:08.422Z,16.30
2022-10-26T03:17:31.903Z,8.40
2022-10-26T03:18:55.288Z,9.48
2022-10-26T03:20:19.993Z,7.60
2022-10-26T03:21:42.440Z,10.60
2022-10-26T03:23:08.191Z,10.20
2022-10-26T03:24:31.582Z,9.15
2022-10-26T03:25:58.331Z,11.10
2022-10-26T03:27:20.753Z,7.82
2022-10-26T03:28:44.399Z,9.15
2022-10-26T03:30:08.880Z,13.55
2022-10-26T03:31:32.226Z,10.85
2022-10-26T03:32:55.745Z,8.52
2022-10-26T03:34:18.150Z,10.70
2022-10-26T03:35:42.946Z,6.88
2022-10-26T03:37:06.297Z,7.22
2022-10-26T03:38:29.677Z,7.15
2022-10-26T03:39:53.114Z,7.30
2022-10-26T03:41:16.472Z,10.27
2022-10-26T03:42:38.902Z,11.88
2022-10-26T03:44:02.268Z,12.07
2022-10-26T03:45:25.848Z,9.32
2022-10-26T03:46:48.203Z,8.40
2022-10-26T03:48:11.624Z,9.23
2022-10-26T03:49:35.906Z,9.75
2022-10-26T03:51:01.125Z,10.80
2022-10-26T03:52:25.142Z,6.93
2022-10-26T03:53:48.568Z,7.70
2022-10-26T03:55:11.225Z,9.30
2022-10-26T03:56:37.049Z,7.63
2022-10-26T03:58:00.438Z,10.30
2022-10-26T03:59:23.989Z,12.00
2022-10-26T04:00:48.108Z,8.32
2022-10-26T04:02:12.771Z,9.35
2022-10-26T04:03:36.090Z,9.50
2022-10-26T04:04:59.430Z,7.25
2022-10-26T04:06:24.147Z,15.30
2022-10-26T04:07:54.176Z,9.52
2022-10-26T04:09:17.524Z,10.73
2022-10-26T04:10:39.900Z,11.93
2022-10-26T04:12:03.294Z,13.73
2022-10-26T04:13:26.658Z,12.20
2022-10-26T04:14:50.089Z,12.00
2022-10-26T04:16:13.505Z,9.45
2022-10-26T04:17:35.870Z,10.02
2022-10-26T04:18:59.228Z,9.60
2022-10-26T04:20:22.602Z,9.30
2022-10-26T04:21:47.462Z,10.02
2022-10-26T04:23:12.402Z,10.30
2022-10-26T04:24:35.820Z,7.05
2022-10-26T04:25:59.242Z,8.23
2022-10-26T04:27:21.730Z,6.65
2022-10-26T04:28:45.121Z,9.55
2022-10-26T04:30:09.925Z,12.48
2022-10-26T04:31:33.471Z,5.53
2022-10-26T04:32:55.948Z,6.88
2022-10-26T04:34:19.292Z,11.60
2022-10-26T04:35:42.969Z,11.55
2022-10-26T04:37:06.722Z,8.10
2022-10-26T04:38:30.108Z,8.35
2022-10-26T04:39:53.521Z,7.75
2022-10-26T04:41:16.984Z,8.80
2022-10-26T04:42:43.938Z,10.93
2022-10-26T04:44:07.359Z,8.45
2022-10-26T04:45:31.454Z,7.20
2022-10-26T04:46:54.827Z,12.93
2022-10-26T04:48:18.181Z,6.78
2022-10-26T04:49:41.566Z,7.38
2022-10-26T04:51:05.152Z,9.18
2022-10-26T04:52:28.930Z,10.10
2022-10-26T04:53:54.279Z,9.30
2022-10-26T04:55:17.751Z,10.55
2022-10-26T04:56:41.184Z,7.95
2022-10-26T04:58:04.715Z,11.75
2022-10-26T04:59:28.030Z,11.10
2022-10-26T05:00:50.515Z,8.65
2022-10-26T05:02:13.986Z,6.80
2022-10-26T05:03:37.473Z,8.60
2022-10-26T05:05:00.982Z,8.90
2022-10-26T05:06:24.932Z,8.75
2022-10-26T05:07:56.772Z,10.00
2022-10-26T05:09:20.118Z,14.82
2022-10-26T05:10:43.879Z,10.02
2022-10-26T05:12:07.383Z,14.25
2022-10-26T05:13:30.876Z,7.10
2022-10-26T05:14:59.003Z,8.65
2022-10-26T05:16:22.443Z,8.90
2022-10-26T05:17:45.924Z,11.13
2022-10-26T05:19:09.381Z,11.07
2022-10-26T05:20:34.156Z,9.88
2022-10-26T05:21:57.529Z,11.20
2022-10-26T05:23:21.804Z,10.15
2022-10-26T05:24:45.194Z,10.73
2022-10-26T05:26:08.588Z,13.50
2022-10-26T05:27:31.950Z,16.38
2022-10-26T05:28:55.279Z,8.07
2022-10-26T05:30:18.739Z,12.10
2022-10-26T05:31:42.167Z,6.40
2022-10-26T05:33:05.847Z,9.10
2022-10-26T05:34:29.215Z,10.77
2022-10-26T05:35:56.158Z,11.93
2022-10-26T05:37:19.488Z,9.18
2022-10-26T05:38:44.185Z,15.05
2022-10-26T05:40:08.860Z,10.20
2022-10-26T05:41:32.251Z,12.35
2022-10-26T05:43:01.813Z,14.70
2022-10-26T05:44:25.225Z,9.98
2022-10-26T05:45:48.634Z,10.15
2022-10-26T05:47:11.974Z,15.45
2022-10-26T05:48:35.843Z,16.92
2022-10-26T05:49:58.204Z,11.43
2022-10-26T05:51:21.591Z,14.73
2022-10-26T05:52:46.565Z,9.20
2022-10-26T05:54:13.801Z,8.43
2022-10-26T05:55:38.235Z,13.35
2022-10-26T05:57:02.231Z,12.15
2022-10-26T05:58:26.358Z,12.38
2022-10-26T05:59:50.304Z,10.07
2022-10-26T06:01:24.315Z,18.38
2022-10-26T06:02:59.306Z,7.28
2022-10-26T06:04:31.106Z,12.32
2022-10-26T06:05:55.695Z,12.82
2022-10-26T06:07:20.837Z,9.10
2022-10-26T06:08:44.647Z,17.73
2022-10-26T06:10:12.498Z,12.48
2022-10-26T06:11:36.527Z,12.60
2022-10-26T06:13:00.327Z,16.45
2022-10-26T06:14:24.145Z,16.27
2022-10-26T06:15:59.296Z,16.38
2022-10-26T06:17:39.647Z,7.80
2022-10-26T06:19:12.146Z,9.07
2022-10-26T06:20:45.719Z,7.32
2022-10-26T06:22:24.567Z,14.38
2022-10-26T06:23:53.533Z,9.38
2022-10-26T06:25:26.044Z,9.77
2022-10-26T06:26:53.547Z,7.55
2022-10-26T06:28:24.672Z,13.10
2022-10-26T06:29:55.459Z,8.38
2022-10-26T06:31:18.875Z,9.15
2022-10-26T06:32:44.754Z,10.43
2022-10-26T06:34:08.137Z,14.77
2022-10-26T06:35:36.804Z,7.93
2022-10-26T06:37:00.407Z,13.50
2022-10-26T06:38:24.161Z,10.00
2022-10-26T06:39:51.400Z,9.27
2022-10-26T06:41:19.480Z,5.78
2022-10-26T06:42:43.481Z,5.60
2022-10-26T06:44:10.147Z,7.72
2022-10-26T06:45:33.488Z,8.20
2022-10-26T06:47:04.011Z,11.85
2022-10-26T06:48:29.897Z,10.18
2022-10-26T06:49:59.589Z,7.28
2022-10-26T06:51:23.424Z,11.45
2022-10-26T06:52:52.629Z,9.20
2022-10-26T06:54:21.044Z,7.07
2022-10-26T06:55:45.682Z,8.30
2022-10-26T06:57:12.538Z,10.95
2022-10-26T06:58:37.981Z,6.82
2022-10-26T07:00:03.298Z,6.47
2022-10-26T07:01:26.721Z,7.68
2022-10-26T07:02:51.043Z,6.20
2022-10-26T07:04:14.586Z,11.68
2022-10-26T07:05:38.004Z,6.40
2022-10-26T07:07:01.348Z,6.43
2022-10-26T07:08:24.749Z,5.90
2022-10-26T07:09:48.183Z,6.95
2022-10-26T07:11:11.585Z,6.15
2022-10-26T07:12:36.294Z,9.18
2022-10-26T07:13:59.660Z,4.68
2022-10-26T07:15:23.119Z,6.53
2022-10-26T07:16:47.055Z,4.43
2022-10-26T07:18:10.784Z,7.85
2022-10-26T07:19:34.111Z,6.50
2022-10-26T07:20:57.899Z,4.45
2022-10-26T07:22:21.324Z,5.63
2022-10-26T07:23:44.686Z,6.90
2022-10-26T07:25:09.023Z,4.72
2022-10-26T07:26:32.393Z,7.20
2022-10-26T07:28:00.535Z,11.35
2022-10-26T07:29:24.304Z,5.07
2022-10-26T07:30:47.641Z,10.57
2022-10-26T07:32:10.984Z,3.75
2022-10-26T07:33:36.922Z,4.78
2022-10-26T07:35:04.195Z,3.25
2022-10-26T07:36:27.570Z,4.18
2022-10-26T07:37:50.937Z,5.63
2022-10-26T07:39:14.258Z,10.20
2022-10-26T07:40:38.577Z,4.15
2022-10-26T07:42:01.925Z,5.35
2022-10-26T07:43:26.665Z,4.80
2022-10-26T07:44:49.003Z,6.82
2022-10-26T07:46:12.331Z,5.50
2022-10-26T07:47:35.669Z,6.07
2022-10-26T07:48:59.041Z,4.03
2022-10-26T07:50:22.590Z,5.35
2022-10-26T07:51:46.111Z,4.97
2022-10-26T07:53:09.424Z,4.45
2022-10-26T07:54:33.232Z,4.68
2022-10-26T07:55:56.973Z,5.10
2022-10-26T07:57:20.313Z,5.47
2022-10-26T07:58:45.377Z,7.88
2022-10-26T08:00:10.839Z,5.15
2022-10-26T08:01:34.369Z,6.13
2022-10-26T08:02:56.865Z,10.38
2022-10-26T08:04:20.215Z,7.18
2022-10-26T08:05:43.589Z,6.70
2022-10-26T08:07:07.123Z,7.05
2022-10-26T08:08:30.560Z,7.75
2022-10-26T08:09:53.906Z,8.90
2022-10-26T08:11:18.103Z,5.50
2022-10-26T08:12:41.641Z,6.65
2022-10-26T08:14:06.575Z,10.90
2022-10-26T08:15:29.968Z,5.68
2022-10-26T08:16:53.283Z,7.13
2022-10-26T08:18:16.875Z,7.18
2022-10-26T08:19:40.217Z,12.57
2022-10-26T08:21:10.996Z,5.65
2022-10-26T08:22:35.233Z,8.93
2022-10-26T08:23:58.630Z,10.38
2022-10-26T08:25:22.004Z,6.80
2022-10-26T08:26:45.509Z,6.25
2022-10-26T08:28:08.847Z,6.80
2022-10-26T08:29:33.567Z,10.30
2022-10-26T08:30:57.600Z,4.78
2022-10-26T08:32:20.948Z,10.10
2022-10-26T08:33:45.091Z,8.88
2022-10-26T08:35:09.236Z,5.38
2022-10-26T08:36:32.595Z,5.47
2022-10-26T08:37:55.998Z,6.07
2022-10-26T08:39:19.420Z,12.25
2022-10-26T08:40:43.896Z,8.48
2022-10-26T08:42:12.131Z,7.80
2022-10-26T08:43:40.620Z,6.93
2022-10-26T08:45:10.290Z,5.20
2022-10-26T08:46:36.169Z,6.70
2022-10-26T08:48:02.077Z,7.35
2022-10-26T08:49:28.342Z,6.45
2022-10-26T08:50:54.701Z,6.82
2022-10-26T08:52:23.195Z,6.07
2022-10-26T08:53:51.850Z,5.47
2022-10-26T08:55:18.010Z,8.23
2022-10-26T08:56:44.950Z,8.07
2022-10-26T08:58:16.956Z,5.10
2022-10-26T08:59:45.201Z,5.97
2022-10-26T09:01:11.690Z,5.72
2022-10-26T09:02:35.165Z,4.80
2022-10-26T09:04:04.658Z,6.70
2022-10-26T09:05:34.726Z,8.48
2022-10-26T09:07:04.280Z,8.95
2022-10-26T09:08:32.568Z,4.05
2022-10-26T09:10:02.718Z,6.18
2022-10-26T09:11:47.093Z,5.60
2022-10-26T09:13:19.627Z,5.55
2022-10-26T09:14:50.365Z,6.75
2022-10-26T09:16:24.012Z,4.78
2022-10-26T09:17:54.057Z,5.88
2022-10-26T09:19:36.918Z,7.68
2022-10-26T09:21:13.110Z,4.93
2022-10-26T09:22:42.641Z,6.55
2022-10-26T09:24:09.351Z,7.65
2022-10-26T09:25:39.559Z,6.65
2022-10-26T09:27:09.663Z,4.95
2022-10-26T09:28:35.783Z,6.55
2022-10-26T09:30:01.935Z,6.03
2022-10-26T09:31:27.045Z,4.88
2022-10-26T09:32:51.408Z,6.20
2022-10-26T09:34:24.626Z,6.30
2022-10-26T09:35:50.859Z,4.93
2022-10-26T09:37:17.125Z,6.65
2022-10-26T09:38:43.822Z,5.95
2022-10-26T09:40:12.631Z,5.05
2022-10-26T09:41:41.052Z,7.35
2022-10-26T09:43:08.128Z,7.13
2022-10-26T09:44:35.530Z,5.18
2022-10-26T09:45:58.986Z,7.90
2022-10-26T09:47:31.498Z,6.30
2022-10-26T09:48:57.798Z,4.82
2022-10-26T09:50:24.980Z,4.60
2022-10-26T09:51:49.032Z,8.68
2022-10-26T09:53:12.391Z,12.57
2022-10-26T09:54:35.786Z,6.15
2022-10-26T09:56:05.537Z,8.63
2022-10-26T09:57:29.049Z,6.45
2022-10-26T09:58:59.443Z,4.22
2022-10-26T10:00:23.355Z,3.92
2022-10-26T10:01:46.943Z,6.53
2022-10-26T10:03:21.519Z,5.65
2022-10-26T10:04:48.942Z,5.40
2022-10-26T10:06:20.409Z,7.82
2022-10-26T10:07:42.783Z,4.82
2022-10-26T10:09:10.774Z,3.03
2022-10-26T10:10:34.164Z,4.30
2022-10-26T10:11:58.966Z,7.57
2022-10-26T10:13:22.472Z,8.70
2022-10-26T10:14:57.631Z,4.90
2022-10-26T10:16:23.212Z,4.00
2022-10-26T10:17:50.849Z,4.95
2022-10-26T10:19:24.946Z,9.05
2022-10-26T10:20:53.293Z,5.72
2022-10-26T10:22:22.380Z,4.03
2022-10-26T10:23:51.985Z,4.43
2022-10-26T10:25:32.532Z,5.55
2022-10-26T10:27:01.209Z,9.77
2022-10-26T10:28:27.138Z,4.57
2022-10-26T10:29:51.780Z,9.43
2022-10-26T10:31:23.796Z,8.45
2022-10-26T10:32:46.159Z,4.45
2022-10-26T10:34:17.697Z,4.03
2022-10-26T10:35:50.680Z,5.18
2022-10-26T10:37:24.488Z,5.13
2022-10-26T10:38:49.874Z,5.82
2022-10-26T10:40:19.418Z,7.70
2022-10-26T10:41:47.784Z,7.72
2022-10-26T10:43:15.034Z,6.32
2022-10-26T10:44:45.873Z,9.10
2022-10-26T10:46:09.320Z,3.38
2022-10-26T10:47:34.382Z,6.65
2022-10-26T10:49:04.512Z,5.55
2022-10-26T10:50:27.958Z,6.55
2022-10-26T10:51:52.928Z,5.13
2022-10-26T10:53:19.271Z,6.43
2022-10-26T10:54:42.617Z,5.05
2022-10-26T10:56:20.398Z,4.13
2022-10-26T10:58:02.908Z,7.80
2022-10-26T10:59:43.669Z,9.13
2022-10-26T11:01:12.105Z,5.22
2022-10-26T11:02:51.672Z,4.28
2022-10-26T11:04:37.034Z,4.88
2022-10-26T11:06:11.763Z,4.45
2022-10-26T11:07:43.081Z,5.68
2022-10-26T11:09:08.882Z,7.20
2022-10-26T11:10:35.458Z,4.13
2022-10-26T11:12:02.106Z,5.97
2022-10-26T11:13:28.153Z,5.28
2022-10-26T11:14:56.008Z,9.88
2022-10-26T11:16:24.670Z,8.43
2022-10-26T11:17:53.908Z,4.40
2022-10-26T11:19:21.553Z,5.95
2022-10-26T11:20:48.308Z,13.00
2022-10-26T11:22:18.289Z,8.13
2022-10-26T11:23:46.719Z,5.85
2022-10-26T11:25:16.842Z,3.85
2022-10-26T11:26:46.155Z,4.90
2022-10-26T11:28:15.471Z,4.45
2022-10-26T11:29:48.374Z,4.20
2022-10-26T11:31:17.467Z,4.70
2022-10-26T11:32:44.685Z,3.42
2022-10-26T11:34:25.913Z,4.85
2022-10-26T11:35:57.227Z,4.35
2022-10-26T11:37:25.258Z,6.43
2022-10-26T11:38:57.177Z,3.35
2022-10-26T11:40:26.823Z,3.22
2022-10-26T11:41:52.599Z,2.67
2022-10-26T11:43:17.263Z,5.97
2022-10-26T11:44:44.110Z,3.30
2022-10-26T11:46:14.002Z,2.67
2022-10-26T11:47:45.291Z,5.57
2022-10-26T11:49:15.304Z,3.05
2022-10-26T11:50:43.868Z,4.03
2022-10-26T11:52:14.555Z,2.38
2022-10-26T11:53:40.047Z,5.18
2022-10-26T11:55:05.215Z,3.53
2022-10-26T11:56:33.103Z,2.85
2022-10-26T11:57:56.422Z,6.05
2022-10-26T11:59:21.587Z,7.07
2022-10-26T12:00:56.626Z,4.82
2022-10-26T12:02:21.899Z,4.60
2022-10-26T12:03:47.616Z,7.10
2022-10-26T12:05:20.858Z,3.10
2022-10-26T12:06:45.097Z,4.15
2022-10-26T12:08:12.360Z,4.50
2022-10-26T12:09:38.492Z,6.15
2022-10-26T12:12:39.944Z,2.63
2022-10-26T12:14:07.870Z,2.58
2022-10-26T12:16:01.807Z,5.80
2022-10-26T12:17:22.496Z,4.05
2022-10-26T12:18:56.929Z,3.30
2022-10-26T12:20:54.870Z,8.68
2022-10-26T12:22:19.535Z,8.00
2022-10-26T12:23:56.153Z,2.67
2022-10-26T12:25:23.457Z,2.65
2022-10-26T12:26:54.591Z,2.95
2022-10-26T12:28:40.831Z,4.93
2022-10-26T12:30:31.315Z,3.58
2022-10-26T12:31:53.696Z,6.88
2022-10-26T12:33:30.151Z,5.28
2022-10-26T12:35:00.897Z,7.88
2022-10-26T12:37:05.944Z,6.60
2022-10-26T12:39:00.801Z,1.83
2022-10-26T12:40:44.024Z,6.32
2022-10-26T12:42:30.697Z,2.92
2022-10-26T12:43:59.040Z,2.80
2022-10-26T12:45:22.837Z,4.20
2022-10-26T12:46:46.263Z,5.43
2022-10-26T12:48:38.845Z,4.72
2022-10-26T12:50:03.552Z,3.85
2022-10-26T12:51:44.239Z,5.13
2022-10-26T12:53:09.303Z,3.15
2022-10-26T12:54:40.000Z,4.32
2022-10-26T12:56:06.349Z,2.30
2022-10-26T12:57:34.336Z,2.78
2022-10-26T12:59:19.994Z,7.65
2022-10-26T13:00:46.211Z,3.97
2022-10-26T13:02:35.526Z,4.97
2022-10-26T13:04:09.839Z,3.78
2022-10-26T13:06:11.061Z,3.50
2022-10-26T13:07:38.390Z,8.05
2022-10-26T13:10:39.169Z,3.60
2022-10-26T13:12:03.510Z,2.45
2022-10-26T13:13:29.648Z,5.30
2022-10-26T13:15:02.114Z,3.45
2022-10-26T13:16:27.347Z,2.35
2022-10-26T13:17:59.908Z,4.28
2022-10-26T13:19:28.027Z,5.18
2022-10-26T13:21:00.726Z,2.83
2022-10-26T13:22:25.460Z,2.60
2022-10-26T13:23:50.312Z,4.32
2022-10-26T13:25:22.868Z,2.17
2022-10-26T13:27:19.480Z,3.28
2022-10-26T13:28:52.119Z,5.72
2022-10-26T13:30:22.957Z,5.65
2022-10-26T13:31:56.827Z,2.22
2022-10-26T13:33:28.305Z,2.10
2022-10-26T13:34:53.545Z,3.05
2022-10-26T13:36:21.790Z,2.92
2022-10-26T13:37:47.399Z,3.63
2022-10-26T13:39:14.057Z,4.13
2022-10-26T13:40:40.245Z,11.40
2022-10-26T13:42:04.352Z,4.95
2022-10-26T13:43:28.280Z,2.63
2022-10-26T13:44:55.539Z,4.22
2022-10-26T13:46:28.225Z,2.95
2022-10-26T13:47:56.262Z,2.45
2022-10-26T13:49:23.060Z,3.05
2022-10-26T13:50:50.552Z,1.80
2022-10-26T13:52:17.621Z,4.38
2022-10-26T13:53:44.291Z,3.80
2022-10-26T13:55:14.232Z,1.42
2022-10-26T13:56:42.560Z,1.67
2022-10-26T13:58:17.276Z,6.75
2022-10-26T13:59:42.794Z,5.10
2022-10-26T14:01:14.900Z,1.70
2022-10-26T14:02:43.559Z,1.35
2022-10-26T14:04:17.997Z,3.10
2022-10-26T14:05:43.685Z,1.88
2022-10-26T14:07:07.604Z,3.20
2022-10-26T14:08:31.109Z,5.10
2022-10-26T14:09:55.785Z,2.47
2022-10-26T14:11:21.888Z,4.53
2022-10-26T14:12:45.292Z,2.35
2022-10-26T14:14:12.146Z,1.85
2022-10-26T14:15:35.432Z,1.42
2022-10-26T14:17:00.447Z,3.88
2022-10-26T14:18:26.204Z,1.40
2022-10-26T14:19:49.976Z,4.80
2022-10-26T14:21:16.585Z,3.33
2022-10-26T14:22:39.993Z,4.57
2022-10-26T14:24:07.558Z,3.50
2022-10-26T14:25:42.692Z,3.70
2022-10-26T14:27:17.169Z,3.17
2022-10-26T14:28:47.555Z,3.80
2022-10-26T14:30:24.033Z,1.67
2022-10-26T14:31:47.585Z,4.38
2022-10-26T14:33:21.470Z,4.75
2022-10-26T14:34:44.826Z,2.50
2022-10-26T14:36:08.608Z,3.08
2022-10-26T14:37:37.620Z,3.60
2022-10-26T14:39:04.344Z,1.63
2022-10-26T14:40:31.073Z,4.38
2022-10-26T14:41:55.352Z,6.45
2022-10-26T14:43:22.083Z,5.65
2022-10-26T14:44:46.518Z,3.55
2022-10-26T14:46:15.265Z,2.28
2022-10-26T14:47:38.913Z,1.75
2022-10-26T14:49:04.692Z,1.95
2022-10-26T14:50:31.170Z,1.10
2022-10-26T14:51:59.419Z,3.72
2022-10-26T14:53:23.592Z,3.13
2022-10-26T14:54:59.518Z,7.50
2022-10-26T14:56:26.564Z,4.45
2022-10-26T14:57:51.946Z,3.80
2022-10-26T14:59:22.108Z,2.88
2022-10-26T15:00:45.837Z,2.67
2022-10-26T15:02:17.520Z,9.30
2022-10-26T15:03:40.154Z,3.55
2022-10-26T15:05:17.953Z,2.85
2022-10-26T15:06:43.644Z,4.75
2022-10-26T15:08:52.363Z,2.53
2022-10-26T15:10:47.973Z,3.65
2022-10-26T15:12:22.028Z,4.47
2022-10-26T15:13:45.376Z,3.08
2022-10-26T15:16:53.483Z,7.97
2022-10-26T15:18:22.216Z,5.95
2022-10-26T15:19:46.392Z,3.70
2022-10-26T15:21:23.391Z,6.88
2022-10-26T15:22:52.294Z,5.20
2022-10-26T15:24:32.077Z,4.85
2022-10-26T15:26:00.715Z,10.80
2022-10-26T15:27:24.543Z,5.90
2022-10-26T15:28:49.561Z,4.00
2022-10-26T15:30:21.216Z,2.53
2022-10-26T15:31:45.533Z,2.55
2022-10-26T15:33:20.060Z,9.75
2022-10-26T15:34:43.472Z,7.00
2022-10-26T15:36:18.679Z,4.25
2022-10-26T15:37:41.134Z,3.65
2022-10-26T15:39:04.669Z,11.85
2022-10-26T15:40:28.974Z,4.40
2022-10-26T15:41:53.570Z,3.45
2022-10-26T15:43:16.931Z,4.72
2022-10-26T15:44:40.272Z,5.30
2022-10-26T15:46:03.699Z,6.57
2022-10-26T15:47:31.544Z,3.58
2022-10-26T15:48:57.590Z,7.60
2022-10-26T15:50:23.131Z,8.90
2022-10-26T15:51:49.313Z,9.82
2022-10-26T15:53:17.526Z,8.48
2022-10-26T15:54:40.901Z,8.43
2022-10-26T15:56:04.372Z,7.63
2022-10-26T15:57:27.907Z,9.45
2022-10-26T16:34:04.189Z,12.25
2022-10-26T16:35:27.893Z,13.13
2022-10-26T16:36:51.252Z,7.25
2022-10-26T16:38:14.596Z,10.88
2022-10-26T16:39:37.951Z,8.93
2022-10-26T16:41:04.521Z,4.18
2022-10-26T16:42:28.354Z,14.30
2022-10-26T16:43:51.953Z,7.82
2022-10-26T16:45:16.294Z,5.05
2022-10-26T16:46:39.697Z,4.93
2022-10-26T16:48:05.975Z,6.47
2022-10-26T16:49:30.679Z,11.20
2022-10-26T16:50:54.108Z,10.20
2022-10-26T16:52:17.792Z,11.95
2022-10-26T16:53:41.384Z,11.57
2022-10-26T16:55:06.287Z,7.43
2022-10-26T16:56:31.734Z,9.88
2022-10-26T16:57:55.064Z,12.10
2022-10-26T16:59:18.414Z,15.20
2022-10-26T17:00:40.763Z,12.00
2022-10-26T17:02:04.550Z,15.10
2022-10-26T17:03:28.060Z,7.25
2022-10-26T17:04:52.747Z,8.13
2022-10-26T17:06:16.463Z,4.28
2022-10-26T17:07:39.834Z,5.53
2022-10-26T17:09:03.261Z,9.73
2022-10-26T17:10:27.884Z,10.90
2022-10-26T17:12:02.346Z,12.75
2022-10-26T17:16:26.325Z,7.07
2022-10-26T17:17:49.641Z,12.10
2022-10-26T17:19:13.145Z,9.68
2022-10-26T17:20:37.959Z,6.53
2022-10-26T17:22:03.766Z,10.75
2022-10-26T17:23:30.235Z,8.02
2022-10-26T17:24:53.568Z,9.20
2022-10-26T17:26:17.231Z,5.88
2022-10-26T17:27:44.908Z,7.97
2022-10-26T17:29:13.003Z,10.55
2022-10-26T17:30:36.501Z,12.30
2022-10-26T17:31:58.885Z,8.15
2022-10-26T17:33:22.219Z,9.30
2022-10-26T17:34:45.619Z,17.58
2022-10-26T17:36:11.305Z,10.48
2022-10-26T17:37:37.497Z,7.93
2022-10-26T17:39:01.770Z,7.55
2022-10-26T17:40:25.218Z,9.60
2022-10-26T17:41:48.617Z,11.90
2022-10-26T17:43:12.007Z,8.45
2022-10-26T17:44:38.956Z,6.35
2022-10-26T17:46:02.860Z,6.13
2022-10-26T17:47:26.243Z,6.20
2022-10-26T17:48:49.579Z,7.15
2022-10-26T17:50:13.320Z,8.63
2022-10-26T17:51:38.067Z,8.48
2022-10-26T17:53:00.507Z,6.72
2022-10-26T17:54:23.872Z,7.38
2022-10-26T17:55:47.323Z,16.70
2022-10-26T17:57:11.110Z,11.00
2022-10-26T17:58:34.178Z,9.68
2022-10-26T17:59:57.507Z,8.70
2022-10-26T18:01:21.063Z,19.67
2022-10-26T18:02:44.554Z,9.85
2022-10-26T18:04:08.045Z,10.30
2022-10-26T18:05:31.734Z,6.57
2022-10-26T18:06:56.626Z,7.45
2022-10-26T18:08:20.212Z,7.10
2022-10-26T18:09:43.580Z,13.07
2022-10-26T18:11:08.366Z,8.43
2022-10-26T18:12:32.474Z,13.13
2022-10-26T18:13:56.483Z,11.93
2022-10-26T18:15:19.897Z,11.38
2022-10-26T18:16:43.234Z,8.63
2022-10-26T18:18:06.838Z,10.77
2022-10-26T18:19:30.289Z,15.88
2022-10-26T18:20:53.664Z,7.82
2022-10-26T18:22:18.359Z,14.85
2022-10-26T18:23:41.679Z,7.38
2022-10-26T18:25:05.326Z,5.10
2022-10-26T18:26:29.705Z,6.93
2022-10-26T18:27:53.119Z,8.05
2022-10-26T18:29:16.579Z,9.98
2022-10-26T18:30:39.947Z,5.65
2022-10-26T18:32:03.361Z,5.47
2022-10-26T18:33:26.684Z,8.60
2022-10-26T18:34:50.142Z,5.88
2022-10-26T18:36:15.121Z,7.75
2022-10-26T18:37:39.878Z,11.45
2022-10-26T18:39:03.315Z,7.60
2022-10-26T18:40:26.719Z,10.82
2022-10-26T18:41:50.056Z,14.07
2022-10-26T18:43:13.399Z,10.38
2022-10-26T18:44:36.728Z,10.10
2022-10-26T18:46:06.966Z,10.20
2022-10-26T18:47:30.885Z,9.98
2022-10-26T18:48:54.694Z,10.15
2022-10-26T18:50:18.338Z,7.03
2022-10-26T18:51:41.837Z,9.88
2022-10-26T18:53:12.374Z,7.07
2022-10-26T18:54:35.900Z,5.93
2022-10-26T18:56:02.233Z,9.07
2022-10-26T18:57:27.108Z,12.27
2022-10-26T18:58:51.558Z,9.07
2022-10-26T19:00:15.858Z,10.07
2022-10-26T19:01:42.076Z,12.75
2022-10-26T19:03:06.532Z,7.80
2022-10-26T19:04:30.097Z,8.77
2022-10-26T19:05:53.420Z,5.90
2022-10-26T19:07:16.784Z,8.57
2022-10-26T19:08:42.221Z,9.43
2022-10-26T19:10:06.197Z,5.53
2022-10-26T19:11:31.068Z,6.97
2022-10-26T19:12:54.489Z,6.78
2022-10-26T19:14:18.366Z,7.22
2022-10-26T19:15:40.772Z,7.38
2022-10-26T19:17:04.249Z,6.28
2022-10-26T19:18:26.612Z,7.28
2022-10-26T19:19:49.984Z,9.65
2022-10-26T19:21:15.052Z,6.70
2022-10-26T19:22:38.453Z,7.68
2022-10-26T19:24:03.804Z,11.65
2022-10-26T19:25:27.324Z,10.77
2022-10-26T19:26:51.916Z,8.50
2022-10-26T19:28:15.308Z,7.20
2022-10-26T19:29:38.719Z,8.85
2022-10-26T19:31:02.756Z,8.25
2022-10-26T19:32:28.661Z,4.60
2022-10-26T19:33:51.149Z,11.95
2022-10-26T19:35:14.511Z,7.55
2022-10-26T19:36:38.066Z,4.45
2022-10-26T19:38:01.415Z,11.18
2022-10-26T19:39:26.351Z,7.25
2022-10-26T19:40:50.028Z,10.85
2022-10-26T19:42:14.218Z,9.10
2022-10-26T19:43:39.024Z,8.52
2022-10-26T19:45:02.383Z,7.65
2022-10-26T19:46:27.044Z,7.57
2022-10-26T19:47:50.649Z,4.78
2022-10-26T19:49:16.828Z,5.97
2022-10-26T19:50:40.207Z,7.45